sensor_id;sensor_type;location;lat;lon;timestamp;temperature;humidity
14099;DHT22;7126;48.458;7.930;2023-05-10T00:00:50;15.70;99.90
14099;DHT22;7126;48.458;7.930;2023-05-10T00:03:16;15.70;99.90
14099;DHT22;7126;48.458;7.930;2023-05-10T00:05:41;15.70;99.90
14099;DHT22;7126;48.458;7.930;2023-05-10T00:08:07;15.70;99.90
14099;DHT22;7126;48.458;7.930;2023-05-10T00:10:33;15.60;99.90
14099;DHT22;7126;48.458;7.930;2023-05-10T00:12:58;15.60;99.90
14099;DHT22;7126;48.458;7.930;2023-05-10T00:15:24;15.60;99.90
14099;DHT22;7126;48.458;7.930;2023-05-10T00:17:49;15.50;99.90
14099;DHT22;7126;48.458;7.930;2023-05-10T00:20:15;15.40;99.90
14099;DHT22;7126;48.458;7.930;2023-05-10T00:22:40;15.40;99.90
14099;DHT22;7126;48.458;7.930;2023-05-10T00:25:07;15.50;99.90
14099;DHT22;7126;48.458;7.930;2023-05-10T00:27:32;15.50;99.90
14099;DHT22;7126;48.458;7.930;2023-05-10T00:29:58;15.50;99.90
14099;DHT22;7126;48.458;7.930;2023-05-10T00:32:24;15.50;99.90
14099;DHT22;7126;48.458;7.930;2023-05-10T00:34:49;15.40;99.90
14099;DHT22;7126;48.458;7.930;2023-05-10T00:37:15;15.50;99.90
14099;DHT22;7126;48.458;7.930;2023-05-10T00:39:40;15.50;99.90
14099;DHT22;7126;48.458;7.930;2023-05-10T00:42:06;15.50;99.90
14099;DHT22;7126;48.458;7.930;2023-05-10T00:44:31;15.50;99.90
14099;DHT22;7126;48.458;7.930;2023-05-10T00:46:57;15.40;99.90
14099;DHT22;7126;48.458;7.930;2023-05-10T00:49:24;15.40;99.90
14099;DHT22;7126;48.458;7.930;2023-05-10T00:51:49;15.40;99.90
14099;DHT22;7126;48.458;7.930;2023-05-10T00:54:15;15.40;99.90
14099;DHT22;7126;48.458;7.930;2023-05-10T00:56:41;15.50;99.90
14099;DHT22;7126;48.458;7.930;2023-05-10T00:59:08;15.50;99.90
14099;DHT22;7126;48.458;7.930;2023-05-10T01:01:35;15.50;99.90
14099;DHT22;7126;48.458;7.930;2023-05-10T01:04:01;15.50;99.90
14099;DHT22;7126;48.458;7.930;2023-05-10T01:06:28;15.40;99.90
14099;DHT22;7126;48.458;7.930;2023-05-10T01:08:53;15.40;99.90
14099;DHT22;7126;48.458;7.930;2023-05-10T01:11:19;15.40;99.90
14099;DHT22;7126;48.458;7.930;2023-05-10T01:13:50;15.40;99.90
14099;DHT22;7126;48.458;7.930;2023-05-10T01:16:17;15.40;99.90
14099;DHT22;7126;48.458;7.930;2023-05-10T01:18:44;15.40;99.90
14099;DHT22;7126;48.458;7.930;2023-05-10T01:27:13;15.40;99.90
14099;DHT22;7126;48.458;7.930;2023-05-10T01:37:31;15.30;99.90
14099;DHT22;7126;48.458;7.930;2023-05-10T01:40:07;15.30;99.90
14099;DHT22;7126;48.458;7.930;2023-05-10T01:42:45;15.30;99.90
14099;DHT22;7126;48.458;7.930;2023-05-10T01:45:30;15.30;99.90
14099;DHT22;7126;48.458;7.930;2023-05-10T01:48:08;15.20;99.90
14099;DHT22;7126;48.458;7.930;2023-05-10T01:50:36;15.30;99.90
14099;DHT22;7126;48.458;7.930;2023-05-10T01:53:06;15.20;99.90
14099;DHT22;7126;48.458;7.930;2023-05-10T01:55:35;15.20;99.90
14099;DHT22;7126;48.458;7.930;2023-05-10T01:58:10;15.20;99.90
14099;DHT22;7126;48.458;7.930;2023-05-10T02:00:40;15.20;99.90
14099;DHT22;7126;48.458;7.930;2023-05-10T02:03:08;15.20;99.90
14099;DHT22;7126;48.458;7.930;2023-05-10T02:05:36;15.30;99.90
14099;DHT22;7126;48.458;7.930;2023-05-10T02:08:06;15.30;99.90
14099;DHT22;7126;48.458;7.930;2023-05-10T02:10:34;15.30;99.90
14099;DHT22;7126;48.458;7.930;2023-05-10T02:13:00;15.40;99.90
14099;DHT22;7126;48.458;7.930;2023-05-10T02:15:27;15.40;99.90
14099;DHT22;7126;48.458;7.930;2023-05-10T02:17:55;15.40;99.90
14099;DHT22;7126;48.458;7.930;2023-05-10T02:20:22;15.30;99.90
14099;DHT22;7126;48.458;7.930;2023-05-10T02:22:51;15.30;99.90
14099;DHT22;7126;48.458;7.930;2023-05-10T02:25:19;15.30;99.90
14099;DHT22;7126;48.458;7.930;2023-05-10T02:27:46;15.30;99.90
14099;DHT22;7126;48.458;7.930;2023-05-10T02:30:13;15.30;99.90
14099;DHT22;7126;48.458;7.930;2023-05-10T02:32:39;15.30;99.90
14099;DHT22;7126;48.458;7.930;2023-05-10T02:35:06;15.20;99.90
14099;DHT22;7126;48.458;7.930;2023-05-10T02:37:33;15.30;99.90
14099;DHT22;7126;48.458;7.930;2023-05-10T02:40:00;15.30;99.90
14099;DHT22;7126;48.458;7.930;2023-05-10T02:42:29;15.30;99.90
14099;DHT22;7126;48.458;7.930;2023-05-10T02:45:00;15.20;99.90
14099;DHT22;7126;48.458;7.930;2023-05-10T02:47:26;15.20;99.90
14099;DHT22;7126;48.458;7.930;2023-05-10T02:49:53;15.10;99.90
14099;DHT22;7126;48.458;7.930;2023-05-10T02:52:24;15.10;99.90
14099;DHT22;7126;48.458;7.930;2023-05-10T02:54:55;15.10;99.90
14099;DHT22;7126;48.458;7.930;2023-05-10T02:57:32;15.10;99.90
14099;DHT22;7126;48.458;7.930;2023-05-10T02:59:57;15.10;99.90
14099;DHT22;7126;48.458;7.930;2023-05-10T03:02:23;15.20;99.90
14099;DHT22;7126;48.458;7.930;2023-05-10T03:04:49;15.20;99.90
14099;DHT22;7126;48.458;7.930;2023-05-10T03:07:15;15.20;99.90
14099;DHT22;7126;48.458;7.930;2023-05-10T03:09:41;15.20;99.90
14099;DHT22;7126;48.458;7.930;2023-05-10T03:12:11;15.10;99.90
14099;DHT22;7126;48.458;7.930;2023-05-10T03:15:00;15.20;99.90
14099;DHT22;7126;48.458;7.930;2023-05-10T03:17:45;15.20;99.90
14099;DHT22;7126;48.458;7.930;2023-05-10T03:20:25;15.20;99.90
14099;DHT22;7126;48.458;7.930;2023-05-10T03:22:55;15.30;99.90
14099;DHT22;7126;48.458;7.930;2023-05-10T03:25:24;15.30;99.90
14099;DHT22;7126;48.458;7.930;2023-05-10T03:27:50;15.20;99.90
14099;DHT22;7126;48.458;7.930;2023-05-10T03:30:17;15.30;99.90
14099;DHT22;7126;48.458;7.930;2023-05-10T03:32:43;15.20;99.90
14099;DHT22;7126;48.458;7.930;2023-05-10T03:35:10;15.20;99.90
14099;DHT22;7126;48.458;7.930;2023-05-10T03:37:36;15.20;99.90
14099;DHT22;7126;48.458;7.930;2023-05-10T03:40:02;15.20;99.90
14099;DHT22;7126;48.458;7.930;2023-05-10T03:42:28;15.20;99.90
14099;DHT22;7126;48.458;7.930;2023-05-10T03:44:54;15.10;99.90
14099;DHT22;7126;48.458;7.930;2023-05-10T03:47:19;15.10;99.90
14099;DHT22;7126;48.458;7.930;2023-05-10T03:49:45;15.10;99.90
14099;DHT22;7126;48.458;7.930;2023-05-10T03:52:11;15.10;99.90
14099;DHT22;7126;48.458;7.930;2023-05-10T03:54:36;15.10;99.90
14099;DHT22;7126;48.458;7.930;2023-05-10T03:57:02;15.10;99.90
14099;DHT22;7126;48.458;7.930;2023-05-10T03:59:28;15.10;99.90
14099;DHT22;7126;48.458;7.930;2023-05-10T04:01:53;15.10;99.90
14099;DHT22;7126;48.458;7.930;2023-05-10T04:04:19;15.00;99.90
14099;DHT22;7126;48.458;7.930;2023-05-10T04:06:46;15.00;99.90
14099;DHT22;7126;48.458;7.930;2023-05-10T04:09:12;15.00;99.90
14099;DHT22;7126;48.458;7.930;2023-05-10T04:11:37;14.90;99.90
14099;DHT22;7126;48.458;7.930;2023-05-10T04:14:03;14.90;99.90
14099;DHT22;7126;48.458;7.930;2023-05-10T04:16:28;14.90;99.90
14099;DHT22;7126;48.458;7.930;2023-05-10T04:18:54;14.80;99.90
14099;DHT22;7126;48.458;7.930;2023-05-10T04:21:20;14.80;99.90
14099;DHT22;7126;48.458;7.930;2023-05-10T04:23:45;14.90;99.90
14099;DHT22;7126;48.458;7.930;2023-05-10T04:26:11;14.90;99.90
14099;DHT22;7126;48.458;7.930;2023-05-10T04:28:37;14.90;99.90
14099;DHT22;7126;48.458;7.930;2023-05-10T04:31:03;14.90;99.90
14099;DHT22;7126;48.458;7.930;2023-05-10T04:33:29;14.90;99.90
14099;DHT22;7126;48.458;7.930;2023-05-10T04:35:55;15.00;99.90
14099;DHT22;7126;48.458;7.930;2023-05-10T04:38:20;15.00;99.90
14099;DHT22;7126;48.458;7.930;2023-05-10T04:40:46;15.00;99.90
14099;DHT22;7126;48.458;7.930;2023-05-10T04:43:11;15.00;99.90
14099;DHT22;7126;48.458;7.930;2023-05-10T04:45:37;15.00;99.90
14099;DHT22;7126;48.458;7.930;2023-05-10T04:48:03;15.10;99.90
14099;DHT22;7126;48.458;7.930;2023-05-10T04:50:28;15.00;99.90
14099;DHT22;7126;48.458;7.930;2023-05-10T04:52:54;15.10;99.90
14099;DHT22;7126;48.458;7.930;2023-05-10T04:55:19;15.10;99.90
14099;DHT22;7126;48.458;7.930;2023-05-10T04:57:45;15.10;99.90
14099;DHT22;7126;48.458;7.930;2023-05-10T05:00:11;15.10;99.90
14099;DHT22;7126;48.458;7.930;2023-05-10T05:02:37;15.10;99.90
14099;DHT22;7126;48.458;7.930;2023-05-10T05:05:03;15.00;99.90
14099;DHT22;7126;48.458;7.930;2023-05-10T05:07:28;14.90;99.90
14099;DHT22;7126;48.458;7.930;2023-05-10T05:09:56;14.90;99.90
14099;DHT22;7126;48.458;7.930;2023-05-10T05:12:21;14.90;99.90
14099;DHT22;7126;48.458;7.930;2023-05-10T05:14:47;14.90;99.90
14099;DHT22;7126;48.458;7.930;2023-05-10T05:17:12;15.00;99.90
14099;DHT22;7126;48.458;7.930;2023-05-10T05:19:38;15.00;99.90
14099;DHT22;7126;48.458;7.930;2023-05-10T05:22:03;15.10;99.90
14099;DHT22;7126;48.458;7.930;2023-05-10T05:24:29;15.10;99.90
14099;DHT22;7126;48.458;7.930;2023-05-10T05:26:54;15.20;99.90
14099;DHT22;7126;48.458;7.930;2023-05-10T05:29:20;15.20;99.90
14099;DHT22;7126;48.458;7.930;2023-05-10T05:31:45;15.10;99.90
14099;DHT22;7126;48.458;7.930;2023-05-10T05:34:11;15.10;99.90
14099;DHT22;7126;48.458;7.930;2023-05-10T05:36:37;15.10;99.90
14099;DHT22;7126;48.458;7.930;2023-05-10T05:39:03;15.10;99.90
14099;DHT22;7126;48.458;7.930;2023-05-10T05:41:29;15.10;99.90
14099;DHT22;7126;48.458;7.930;2023-05-10T05:43:54;15.10;99.90
14099;DHT22;7126;48.458;7.930;2023-05-10T05:46:20;15.10;99.90
14099;DHT22;7126;48.458;7.930;2023-05-10T05:48:45;15.20;99.90
14099;DHT22;7126;48.458;7.930;2023-05-10T05:51:11;15.20;99.90
14099;DHT22;7126;48.458;7.930;2023-05-10T05:53:37;15.10;99.90
14099;DHT22;7126;48.458;7.930;2023-05-10T05:56:02;15.10;99.90
14099;DHT22;7126;48.458;7.930;2023-05-10T05:58:28;15.10;99.90
14099;DHT22;7126;48.458;7.930;2023-05-10T06:00:54;15.20;99.90
14099;DHT22;7126;48.458;7.930;2023-05-10T06:03:20;15.20;99.90
14099;DHT22;7126;48.458;7.930;2023-05-10T06:05:46;15.20;99.90
14099;DHT22;7126;48.458;7.930;2023-05-10T06:08:12;15.20;99.90
14099;DHT22;7126;48.458;7.930;2023-05-10T06:10:38;15.20;99.90
14099;DHT22;7126;48.458;7.930;2023-05-10T06:13:03;15.20;99.90
14099;DHT22;7126;48.458;7.930;2023-05-10T06:15:29;15.20;99.90
14099;DHT22;7126;48.458;7.930;2023-05-10T06:17:55;15.20;99.90
14099;DHT22;7126;48.458;7.930;2023-05-10T06:20:20;15.30;99.90
14099;DHT22;7126;48.458;7.930;2023-05-10T06:22:46;15.30;99.90
14099;DHT22;7126;48.458;7.930;2023-05-10T06:25:11;15.30;99.90
14099;DHT22;7126;48.458;7.930;2023-05-10T06:27:37;15.30;99.90
14099;DHT22;7126;48.458;7.930;2023-05-10T06:30:03;15.30;99.90
14099;DHT22;7126;48.458;7.930;2023-05-10T06:32:30;15.30;99.90
14099;DHT22;7126;48.458;7.930;2023-05-10T06:34:55;15.40;99.90
14099;DHT22;7126;48.458;7.930;2023-05-10T06:37:21;15.40;99.90
14099;DHT22;7126;48.458;7.930;2023-05-10T06:39:46;15.50;99.90
14099;DHT22;7126;48.458;7.930;2023-05-10T06:42:12;15.50;99.90
14099;DHT22;7126;48.458;7.930;2023-05-10T06:44:37;15.50;99.90
14099;DHT22;7126;48.458;7.930;2023-05-10T06:47:03;15.50;99.90
14099;DHT22;7126;48.458;7.930;2023-05-10T06:49:29;15.50;99.90
14099;DHT22;7126;48.458;7.930;2023-05-10T06:51:55;15.30;99.90
14099;DHT22;7126;48.458;7.930;2023-05-10T06:54:21;15.30;99.90
14099;DHT22;7126;48.458;7.930;2023-05-10T06:56:47;15.30;99.90
14099;DHT22;7126;48.458;7.930;2023-05-10T06:59:12;15.30;99.90
14099;DHT22;7126;48.458;7.930;2023-05-10T07:01:39;15.30;99.90
14099;DHT22;7126;48.458;7.930;2023-05-10T07:04:04;15.30;99.90
14099;DHT22;7126;48.458;7.930;2023-05-10T07:06:30;15.40;99.90
14099;DHT22;7126;48.458;7.930;2023-05-10T07:08:56;15.50;99.90
14099;DHT22;7126;48.458;7.930;2023-05-10T07:11:21;15.50;99.90
14099;DHT22;7126;48.458;7.930;2023-05-10T07:13:47;15.60;99.90
14099;DHT22;7126;48.458;7.930;2023-05-10T07:16:12;15.60;99.90
14099;DHT22;7126;48.458;7.930;2023-05-10T07:18:38;15.60;99.90
14099;DHT22;7126;48.458;7.930;2023-05-10T07:21:03;15.70;99.90
14099;DHT22;7126;48.458;7.930;2023-05-10T07:23:29;15.70;99.90
14099;DHT22;7126;48.458;7.930;2023-05-10T07:25:55;15.60;99.90
14099;DHT22;7126;48.458;7.930;2023-05-10T07:28:22;15.70;99.90
14099;DHT22;7126;48.458;7.930;2023-05-10T07:30:48;15.70;99.90
14099;DHT22;7126;48.458;7.930;2023-05-10T07:33:14;15.70;99.90
14099;DHT22;7126;48.458;7.930;2023-05-10T07:35:40;15.70;99.90
14099;DHT22;7126;48.458;7.930;2023-05-10T07:38:05;15.70;99.90
14099;DHT22;7126;48.458;7.930;2023-05-10T07:40:31;15.90;99.90
14099;DHT22;7126;48.458;7.930;2023-05-10T07:42:57;15.90;99.90
14099;DHT22;7126;48.458;7.930;2023-05-10T07:45:23;16.00;99.90
14099;DHT22;7126;48.458;7.930;2023-05-10T07:47:49;16.00;99.90
14099;DHT22;7126;48.458;7.930;2023-05-10T07:50:15;16.10;99.90
14099;DHT22;7126;48.458;7.930;2023-05-10T07:52:40;16.30;99.90
14099;DHT22;7126;48.458;7.930;2023-05-10T07:55:06;16.40;99.90
14099;DHT22;7126;48.458;7.930;2023-05-10T07:57:33;16.50;99.90
14099;DHT22;7126;48.458;7.930;2023-05-10T07:59:59;16.60;99.90
14099;DHT22;7126;48.458;7.930;2023-05-10T08:02:24;16.50;99.90
14099;DHT22;7126;48.458;7.930;2023-05-10T08:04:50;16.50;99.90
14099;DHT22;7126;48.458;7.930;2023-05-10T08:07:16;16.50;99.90
14099;DHT22;7126;48.458;7.930;2023-05-10T08:09:42;16.40;99.90
14099;DHT22;7126;48.458;7.930;2023-05-10T08:12:08;16.30;99.90
14099;DHT22;7126;48.458;7.930;2023-05-10T08:14:33;16.50;99.90
14099;DHT22;7126;48.458;7.930;2023-05-10T08:16:59;16.60;99.90
14099;DHT22;7126;48.458;7.930;2023-05-10T08:19:25;16.70;99.90
14099;DHT22;7126;48.458;7.930;2023-05-10T08:21:50;16.70;99.90
14099;DHT22;7126;48.458;7.930;2023-05-10T08:24:16;16.80;99.90
14099;DHT22;7126;48.458;7.930;2023-05-10T08:26:41;16.80;99.90
14099;DHT22;7126;48.458;7.930;2023-05-10T08:29:07;16.90;99.90
14099;DHT22;7126;48.458;7.930;2023-05-10T08:31:33;17.00;99.90
14099;DHT22;7126;48.458;7.930;2023-05-10T08:33:58;17.20;99.90
14099;DHT22;7126;48.458;7.930;2023-05-10T08:36:24;17.20;99.90
14099;DHT22;7126;48.458;7.930;2023-05-10T08:38:53;17.10;99.90
14099;DHT22;7126;48.458;7.930;2023-05-10T08:41:22;17.00;99.90
14099;DHT22;7126;48.458;7.930;2023-05-10T08:43:52;16.70;99.90
14099;DHT22;7126;48.458;7.930;2023-05-10T08:46:20;16.50;99.90
14099;DHT22;7126;48.458;7.930;2023-05-10T08:48:46;16.30;99.90
14099;DHT22;7126;48.458;7.930;2023-05-10T08:51:14;16.20;99.90
14099;DHT22;7126;48.458;7.930;2023-05-10T08:53:40;16.20;99.90
14099;DHT22;7126;48.458;7.930;2023-05-10T08:56:06;16.20;99.90
14099;DHT22;7126;48.458;7.930;2023-05-10T08:58:32;16.20;99.90
14099;DHT22;7126;48.458;7.930;2023-05-10T09:00:58;16.20;99.90
14099;DHT22;7126;48.458;7.930;2023-05-10T09:03:24;16.30;99.90
14099;DHT22;7126;48.458;7.930;2023-05-10T09:05:50;16.30;99.90
14099;DHT22;7126;48.458;7.930;2023-05-10T09:08:16;16.40;99.90
14099;DHT22;7126;48.458;7.930;2023-05-10T09:10:43;16.40;99.90
14099;DHT22;7126;48.458;7.930;2023-05-10T09:13:10;16.40;99.90
14099;DHT22;7126;48.458;7.930;2023-05-10T09:15:37;16.40;99.90
14099;DHT22;7126;48.458;7.930;2023-05-10T09:18:03;16.50;99.90
14099;DHT22;7126;48.458;7.930;2023-05-10T09:20:29;16.60;99.90
14099;DHT22;7126;48.458;7.930;2023-05-10T09:22:55;16.60;99.90
14099;DHT22;7126;48.458;7.930;2023-05-10T09:25:20;16.60;99.90
14099;DHT22;7126;48.458;7.930;2023-05-10T09:27:47;16.60;99.90
14099;DHT22;7126;48.458;7.930;2023-05-10T09:30:26;16.70;99.90
14099;DHT22;7126;48.458;7.930;2023-05-10T09:32:53;16.70;99.90
14099;DHT22;7126;48.458;7.930;2023-05-10T09:35:25;16.70;99.90
14099;DHT22;7126;48.458;7.930;2023-05-10T09:37:52;16.70;99.90
14099;DHT22;7126;48.458;7.930;2023-05-10T09:40:24;16.50;99.90
14099;DHT22;7126;48.458;7.930;2023-05-10T09:42:58;16.50;99.90
14099;DHT22;7126;48.458;7.930;2023-05-10T09:45:26;16.70;99.90
14099;DHT22;7126;48.458;7.930;2023-05-10T09:47:52;16.60;99.90
14099;DHT22;7126;48.458;7.930;2023-05-10T09:50:19;16.60;99.90
14099;DHT22;7126;48.458;7.930;2023-05-10T09:52:53;16.70;99.90
14099;DHT22;7126;48.458;7.930;2023-05-10T09:55:21;16.80;99.90
14099;DHT22;7126;48.458;7.930;2023-05-10T09:57:48;16.80;99.90
14099;DHT22;7126;48.458;7.930;2023-05-10T10:00:19;16.80;99.90
14099;DHT22;7126;48.458;7.930;2023-05-10T10:02:47;16.90;99.90
14099;DHT22;7126;48.458;7.930;2023-05-10T10:05:13;16.90;99.90
14099;DHT22;7126;48.458;7.930;2023-05-10T10:07:39;17.00;99.90
14099;DHT22;7126;48.458;7.930;2023-05-10T10:10:05;17.00;99.90
14099;DHT22;7126;48.458;7.930;2023-05-10T10:12:31;17.00;99.90
14099;DHT22;7126;48.458;7.930;2023-05-10T10:14:57;16.90;99.90
14099;DHT22;7126;48.458;7.930;2023-05-10T10:17:26;16.90;99.90
14099;DHT22;7126;48.458;7.930;2023-05-10T10:19:53;16.80;99.90
14099;DHT22;7126;48.458;7.930;2023-05-10T10:22:20;16.90;99.90
14099;DHT22;7126;48.458;7.930;2023-05-10T10:24:45;16.90;99.90
14099;DHT22;7126;48.458;7.930;2023-05-10T10:29:49;17.20;99.90
14099;DHT22;7126;48.458;7.930;2023-05-10T10:34:46;17.50;99.90
14099;DHT22;7126;48.458;7.930;2023-05-10T10:37:12;17.60;99.90
14099;DHT22;7126;48.458;7.930;2023-05-10T10:39:37;17.60;99.90
14099;DHT22;7126;48.458;7.930;2023-05-10T10:42:04;17.60;99.90
14099;DHT22;7126;48.458;7.930;2023-05-10T10:52:25;17.60;99.90
14099;DHT22;7126;48.458;7.930;2023-05-10T10:55:03;17.90;99.90
14099;DHT22;7126;48.458;7.930;2023-05-10T10:57:32;17.90;99.90
14099;DHT22;7126;48.458;7.930;2023-05-10T11:00:21;18.00;99.90
14099;DHT22;7126;48.458;7.930;2023-05-10T11:02:52;18.10;99.90
14099;DHT22;7126;48.458;7.930;2023-05-10T11:05:38;18.20;99.90
14099;DHT22;7126;48.458;7.930;2023-05-10T11:08:10;18.30;99.90
14099;DHT22;7126;48.458;7.930;2023-05-10T11:10:36;18.70;99.90
14099;DHT22;7126;48.458;7.930;2023-05-10T11:13:07;18.90;99.90
14099;DHT22;7126;48.458;7.930;2023-05-10T11:15:37;18.80;99.90
14099;DHT22;7126;48.458;7.930;2023-05-10T11:18:20;18.70;99.90
14099;DHT22;7126;48.458;7.930;2023-05-10T11:21:00;18.80;99.90
14099;DHT22;7126;48.458;7.930;2023-05-10T11:26:07;18.90;99.90
14099;DHT22;7126;48.458;7.930;2023-05-10T11:28:46;18.90;99.90
14099;DHT22;7126;48.458;7.930;2023-05-10T11:31:16;19.10;99.90
14099;DHT22;7126;48.458;7.930;2023-05-10T11:33:50;19.20;99.90
14099;DHT22;7126;48.458;7.930;2023-05-10T11:36:18;19.30;99.90
14099;DHT22;7126;48.458;7.930;2023-05-10T11:38:44;19.20;99.90
14099;DHT22;7126;48.458;7.930;2023-05-10T11:41:10;18.90;99.90
14099;DHT22;7126;48.458;7.930;2023-05-10T11:43:37;18.90;99.90
14099;DHT22;7126;48.458;7.930;2023-05-10T11:46:05;18.70;99.90
14099;DHT22;7126;48.458;7.930;2023-05-10T11:48:31;18.60;99.90
14099;DHT22;7126;48.458;7.930;2023-05-10T11:50:57;18.50;99.90
14099;DHT22;7126;48.458;7.930;2023-05-10T11:53:25;18.30;99.90
14099;DHT22;7126;48.458;7.930;2023-05-10T11:55:51;18.20;99.90
14099;DHT22;7126;48.458;7.930;2023-05-10T11:58:18;18.30;99.90
14099;DHT22;7126;48.458;7.930;2023-05-10T12:00:44;18.50;99.90
14099;DHT22;7126;48.458;7.930;2023-05-10T12:03:11;18.70;99.90
14099;DHT22;7126;48.458;7.930;2023-05-10T12:05:37;19.20;99.90
14099;DHT22;7126;48.458;7.930;2023-05-10T12:08:22;19.60;99.90
14099;DHT22;7126;48.458;7.930;2023-05-10T12:10:48;19.70;99.90
14099;DHT22;7126;48.458;7.930;2023-05-10T12:13:15;19.80;99.90
14099;DHT22;7126;48.458;7.930;2023-05-10T12:15:41;19.50;99.90
14099;DHT22;7126;48.458;7.930;2023-05-10T12:18:14;19.30;99.90
14099;DHT22;7126;48.458;7.930;2023-05-10T12:20:40;19.10;99.90
14099;DHT22;7126;48.458;7.930;2023-05-10T12:23:08;19.00;99.90
14099;DHT22;7126;48.458;7.930;2023-05-10T12:25:37;18.90;99.90
14099;DHT22;7126;48.458;7.930;2023-05-10T12:28:05;18.70;99.90
14099;DHT22;7126;48.458;7.930;2023-05-10T12:30:32;18.60;99.90
14099;DHT22;7126;48.458;7.930;2023-05-10T12:33:11;18.50;99.90
14099;DHT22;7126;48.458;7.930;2023-05-10T12:35:45;18.40;99.90
14099;DHT22;7126;48.458;7.930;2023-05-10T12:38:28;18.30;99.90
14099;DHT22;7126;48.458;7.930;2023-05-10T12:40:58;18.10;99.90
14099;DHT22;7126;48.458;7.930;2023-05-10T12:43:25;18.00;99.90
14099;DHT22;7126;48.458;7.930;2023-05-10T12:45:50;18.00;99.90
14099;DHT22;7126;48.458;7.930;2023-05-10T12:48:16;17.90;99.90
14099;DHT22;7126;48.458;7.930;2023-05-10T12:50:42;17.90;99.90
14099;DHT22;7126;48.458;7.930;2023-05-10T12:53:07;17.80;99.90
14099;DHT22;7126;48.458;7.930;2023-05-10T12:55:33;17.90;99.90
14099;DHT22;7126;48.458;7.930;2023-05-10T12:57:58;18.00;99.90
14099;DHT22;7126;48.458;7.930;2023-05-10T13:00:24;18.10;99.90
14099;DHT22;7126;48.458;7.930;2023-05-10T13:02:49;18.10;99.90
14099;DHT22;7126;48.458;7.930;2023-05-10T13:05:15;18.10;99.90
14099;DHT22;7126;48.458;7.930;2023-05-10T13:07:41;18.20;99.90
14099;DHT22;7126;48.458;7.930;2023-05-10T13:10:07;18.30;99.90
14099;DHT22;7126;48.458;7.930;2023-05-10T13:12:33;18.40;99.90
14099;DHT22;7126;48.458;7.930;2023-05-10T13:14:58;18.50;99.90
14099;DHT22;7126;48.458;7.930;2023-05-10T13:17:25;18.60;99.90
14099;DHT22;7126;48.458;7.930;2023-05-10T13:19:50;18.70;99.90
14099;DHT22;7126;48.458;7.930;2023-05-10T13:22:16;18.90;99.90
14099;DHT22;7126;48.458;7.930;2023-05-10T13:24:41;19.20;99.90
14099;DHT22;7126;48.458;7.930;2023-05-10T13:27:07;19.30;99.90
14099;DHT22;7126;48.458;7.930;2023-05-10T13:29:33;19.50;99.90
14099;DHT22;7126;48.458;7.930;2023-05-10T13:31:58;19.70;99.90
14099;DHT22;7126;48.458;7.930;2023-05-10T13:34:24;19.90;99.90
14099;DHT22;7126;48.458;7.930;2023-05-10T13:36:50;20.10;99.90
14099;DHT22;7126;48.458;7.930;2023-05-10T13:39:16;20.00;99.90
14099;DHT22;7126;48.458;7.930;2023-05-10T13:41:42;20.10;99.90
14099;DHT22;7126;48.458;7.930;2023-05-10T13:44:07;20.20;99.90
14099;DHT22;7126;48.458;7.930;2023-05-10T13:46:33;20.40;99.90
14099;DHT22;7126;48.458;7.930;2023-05-10T13:48:58;20.60;99.90
14099;DHT22;7126;48.458;7.930;2023-05-10T13:51:24;20.80;99.90
14099;DHT22;7126;48.458;7.930;2023-05-10T13:53:49;21.00;99.90
14099;DHT22;7126;48.458;7.930;2023-05-10T13:56:15;20.80;99.90
14099;DHT22;7126;48.458;7.930;2023-05-10T13:58:41;20.50;99.90
14099;DHT22;7126;48.458;7.930;2023-05-10T14:01:06;20.40;99.90
14099;DHT22;7126;48.458;7.930;2023-05-10T14:03:33;20.10;99.90
14099;DHT22;7126;48.458;7.930;2023-05-10T14:05:58;19.90;99.90
14099;DHT22;7126;48.458;7.930;2023-05-10T14:08:24;19.80;99.90
14099;DHT22;7126;48.458;7.930;2023-05-10T14:10:49;19.70;99.90
14099;DHT22;7126;48.458;7.930;2023-05-10T14:13:16;19.70;99.90
14099;DHT22;7126;48.458;7.930;2023-05-10T14:15:41;19.60;99.90
14099;DHT22;7126;48.458;7.930;2023-05-10T14:18:07;19.80;99.90
14099;DHT22;7126;48.458;7.930;2023-05-10T14:20:32;19.90;99.90
14099;DHT22;7126;48.458;7.930;2023-05-10T14:22:59;19.80;99.90
14099;DHT22;7126;48.458;7.930;2023-05-10T14:25:25;19.80;99.90
14099;DHT22;7126;48.458;7.930;2023-05-10T14:27:51;19.90;99.90
14099;DHT22;7126;48.458;7.930;2023-05-10T14:30:19;19.90;99.90
14099;DHT22;7126;48.458;7.930;2023-05-10T14:32:45;20.00;99.90
14099;DHT22;7126;48.458;7.930;2023-05-10T14:35:10;20.10;99.90
14099;DHT22;7126;48.458;7.930;2023-05-10T14:37:36;20.10;99.90
14099;DHT22;7126;48.458;7.930;2023-05-10T14:40:02;20.20;99.90
14099;DHT22;7126;48.458;7.930;2023-05-10T14:42:29;20.30;99.90
14099;DHT22;7126;48.458;7.930;2023-05-10T14:44:55;20.30;99.90
14099;DHT22;7126;48.458;7.930;2023-05-10T14:47:20;20.30;99.90
14099;DHT22;7126;48.458;7.930;2023-05-10T14:49:46;20.20;99.90
14099;DHT22;7126;48.458;7.930;2023-05-10T14:52:12;20.00;99.90
14099;DHT22;7126;48.458;7.930;2023-05-10T14:54:37;19.90;99.90
14099;DHT22;7126;48.458;7.930;2023-05-10T14:57:03;19.60;99.90
14099;DHT22;7126;48.458;7.930;2023-05-10T14:59:29;19.20;99.90
14099;DHT22;7126;48.458;7.930;2023-05-10T15:01:54;18.70;99.90
14099;DHT22;7126;48.458;7.930;2023-05-10T15:04:20;18.50;99.90
14099;DHT22;7126;48.458;7.930;2023-05-10T15:06:46;18.20;99.90
14099;DHT22;7126;48.458;7.930;2023-05-10T15:09:12;18.10;99.90
14099;DHT22;7126;48.458;7.930;2023-05-10T15:11:37;18.00;99.90
14099;DHT22;7126;48.458;7.930;2023-05-10T15:14:03;17.80;99.90
14099;DHT22;7126;48.458;7.930;2023-05-10T15:16:28;17.70;99.90
14099;DHT22;7126;48.458;7.930;2023-05-10T15:18:54;17.60;99.90
14099;DHT22;7126;48.458;7.930;2023-05-10T15:21:20;17.60;99.90
14099;DHT22;7126;48.458;7.930;2023-05-10T15:23:45;17.60;99.90
14099;DHT22;7126;48.458;7.930;2023-05-10T15:26:11;17.60;99.90
14099;DHT22;7126;48.458;7.930;2023-05-10T15:28:36;17.50;99.90
14099;DHT22;7126;48.458;7.930;2023-05-10T15:31:02;17.50;99.90
14099;DHT22;7126;48.458;7.930;2023-05-10T15:33:28;17.50;99.90
14099;DHT22;7126;48.458;7.930;2023-05-10T15:35:54;17.50;99.90
14099;DHT22;7126;48.458;7.930;2023-05-10T15:38:19;17.50;99.90
14099;DHT22;7126;48.458;7.930;2023-05-10T15:40:45;17.40;99.90
14099;DHT22;7126;48.458;7.930;2023-05-10T15:43:10;17.50;99.90
14099;DHT22;7126;48.458;7.930;2023-05-10T15:45:36;17.60;99.90
14099;DHT22;7126;48.458;7.930;2023-05-10T15:48:02;17.40;99.90
14099;DHT22;7126;48.458;7.930;2023-05-10T15:50:28;17.10;99.90
14099;DHT22;7126;48.458;7.930;2023-05-10T15:52:53;17.00;99.90
14099;DHT22;7126;48.458;7.930;2023-05-10T15:55:19;17.00;99.90
14099;DHT22;7126;48.458;7.930;2023-05-10T15:57:45;17.10;99.90
14099;DHT22;7126;48.458;7.930;2023-05-10T16:00:11;17.10;99.90
14099;DHT22;7126;48.458;7.930;2023-05-10T16:02:39;17.10;99.90
14099;DHT22;7126;48.458;7.930;2023-05-10T16:05:05;16.90;99.90
14099;DHT22;7126;48.458;7.930;2023-05-10T16:07:30;16.60;99.90
14099;DHT22;7126;48.458;7.930;2023-05-10T16:09:56;16.60;99.90
14099;DHT22;7126;48.458;7.930;2023-05-10T16:12:22;16.70;99.90